createdAt,value
2023-04-29T00:04:01.984Z,21.27
2023-04-29T00:09:04.857Z,19.83
2023-04-29T00:14:07.657Z,20.42
2023-04-29T00:19:09.664Z,18.05
2023-04-29T00:24:11.736Z,21.30
2023-04-29T00:29:13.845Z,20.27
2023-04-29T00:34:16.579Z,20.17
2023-04-29T00:39:18.660Z,20.55
2023-04-29T00:44:20.804Z,22.15
2023-04-29T00:49:22.813Z,23.20
2023-04-29T00:54:25.428Z,19.00
2023-04-29T00:59:32.207Z,19.92
2023-04-29T01:04:34.453Z,22.23
2023-04-29T01:09:57.886Z,21.35
2023-04-29T01:15:07.318Z,24.08
2023-04-29T01:20:10.926Z,23.60
2023-04-29T01:25:13.086Z,20.58
2023-04-29T01:30:46.889Z,20.40
2023-04-29T01:36:17.028Z,22.63
2023-04-29T01:41:28.397Z,22.67
2023-04-29T01:46:39.117Z,21.02
2023-04-29T01:51:41.381Z,25.45
2023-04-29T01:56:44.285Z,20.17
2023-04-29T02:02:04.011Z,24.15
2023-04-29T02:07:07.374Z,24.63
2023-04-29T02:12:10.037Z,22.60
2023-04-29T02:17:12.208Z,23.05
2023-04-29T02:22:16.994Z,23.67
2023-04-29T02:27:19.223Z,19.90
2023-04-29T02:32:21.346Z,27.20
2023-04-29T02:37:23.716Z,25.52
2023-04-29T02:42:25.765Z,23.17
2023-04-29T02:47:27.926Z,25.23
2023-04-29T02:52:31.279Z,27.73
2023-04-29T02:57:33.678Z,25.50
2023-04-29T03:02:36.356Z,25.00
2023-04-29T03:07:39.234Z,24.70
2023-04-29T03:12:41.318Z,28.48
2023-04-29T03:17:45.643Z,25.20
2023-04-29T03:22:48.919Z,27.85
2023-04-29T03:27:50.950Z,20.48
2023-04-29T03:32:53.178Z,22.73
2023-04-29T03:37:55.547Z,21.13
2023-04-29T03:43:04.532Z,18.92
2023-04-29T03:48:07.872Z,22.35
2023-04-29T03:53:10.266Z,21.63
2023-04-29T03:58:12.498Z,19.88
2023-04-29T04:03:14.849Z,20.63
2023-04-29T04:08:19.350Z,20.77
2023-04-29T04:13:27.181Z,22.08
2023-04-29T04:18:29.448Z,21.52
2023-04-29T04:23:32.266Z,20.63
2023-04-29T04:28:34.596Z,19.80
2023-04-29T04:33:41.977Z,19.27
2023-04-29T04:38:44.441Z,17.45
2023-04-29T04:43:48.043Z,16.65
2023-04-29T04:49:28.476Z,17.48
2023-04-29T04:54:31.950Z,18.00
2023-04-29T04:59:43.049Z,17.73
2023-04-29T05:04:45.720Z,18.38
2023-04-29T05:09:50.872Z,16.00
2023-04-29T05:14:53.555Z,16.30
2023-04-29T05:19:55.964Z,18.85
2023-04-29T05:25:02.834Z,18.05
2023-04-29T05:30:07.331Z,17.85
2023-04-29T05:35:09.601Z,16.95
2023-04-29T05:40:11.986Z,18.98
2023-04-29T05:45:15.222Z,15.65
2023-04-29T05:50:17.376Z,14.90
2023-04-29T05:55:20.251Z,18.42
2023-04-29T06:00:23.378Z,18.80
2023-04-29T06:05:30.885Z,16.63
2023-04-29T06:10:52.153Z,17.92
2023-04-29T06:15:54.651Z,18.73
2023-04-29T06:20:57.288Z,17.88
2023-04-29T06:25:59.345Z,15.43
2023-04-29T06:31:01.641Z,18.95
2023-04-29T06:36:04.677Z,18.77
2023-04-29T06:41:25.509Z,13.40
2023-04-29T06:46:46.432Z,15.10
2023-04-29T06:51:55.070Z,16.80
2023-04-29T06:56:58.151Z,19.15
2023-04-29T07:02:00.940Z,18.38
2023-04-29T07:07:03.712Z,19.08
2023-04-29T07:12:06.470Z,19.17
2023-04-29T07:17:08.554Z,17.90
2023-04-29T07:22:10.610Z,16.23
2023-04-29T07:27:12.651Z,16.52
2023-04-29T07:32:15.778Z,18.33
2023-04-29T07:37:17.808Z,16.33
2023-04-29T07:42:19.868Z,14.43
2023-04-29T07:47:21.881Z,15.88
2023-04-29T07:52:23.984Z,16.00
2023-04-29T07:57:26.045Z,16.60
2023-04-29T08:02:28.349Z,14.10
2023-04-29T08:07:31.502Z,14.35
2023-04-29T08:12:34.254Z,14.60
2023-04-29T08:17:36.356Z,15.05
2023-04-29T08:22:38.495Z,15.52
2023-04-29T08:27:40.624Z,14.10
2023-04-29T08:32:42.812Z,14.05
2023-04-29T08:37:44.935Z,14.25
2023-04-29T08:42:49.191Z,15.23
2023-04-29T08:47:52.495Z,11.40
2023-04-29T08:52:55.177Z,10.45
2023-04-29T08:57:57.583Z,11.32
2023-04-29T09:03:01.487Z,10.82
2023-04-29T09:08:05.148Z,10.52
2023-04-29T09:13:07.314Z,10.45
2023-04-29T09:18:09.370Z,9.65
2023-04-29T09:23:11.639Z,10.65
2023-04-29T09:28:19.377Z,10.40
2023-04-29T09:33:21.500Z,9.25
2023-04-29T09:38:23.578Z,10.30
2023-04-29T09:43:26.199Z,9.45
2023-04-29T09:48:33.562Z,8.07
2023-04-29T09:53:38.100Z,8.70
2023-04-29T09:58:40.414Z,9.85
2023-04-29T10:03:43.694Z,8.50
2023-04-29T10:08:47.845Z,7.35
2023-04-29T10:13:52.203Z,8.95
2023-04-29T10:18:56.549Z,8.27
2023-04-29T10:23:59.670Z,8.18
2023-04-29T10:29:03.300Z,8.25
2023-04-29T10:34:05.655Z,6.60
2023-04-29T10:39:13.045Z,7.47
2023-04-29T10:44:15.091Z,6.72
2023-04-29T10:49:17.082Z,6.47
2023-04-29T10:54:25.513Z,5.40
2023-04-29T10:59:33.630Z,5.82
2023-04-29T11:04:56.914Z,6.40
2023-04-29T11:09:59.159Z,6.25
2023-04-29T11:15:04.555Z,5.32
2023-04-29T11:20:10.667Z,6.03
2023-04-29T11:25:12.714Z,6.00
2023-04-29T11:30:16.824Z,6.00
2023-04-29T11:35:20.144Z,6.05
2023-04-29T11:40:22.220Z,7.13
2023-04-29T11:45:24.660Z,6.72
2023-04-29T11:50:27.107Z,6.28
2023-04-29T11:55:29.369Z,5.40
2023-04-29T12:00:31.494Z,6.00
2023-04-29T12:05:33.760Z,5.90
2023-04-29T12:10:36.655Z,5.93
2023-04-29T12:15:40.236Z,5.50
2023-04-29T12:20:42.661Z,3.92
2023-04-29T12:25:56.919Z,5.72
2023-04-29T12:30:59.165Z,5.65
2023-04-29T12:36:02.142Z,4.30
2023-04-29T12:41:07.483Z,5.53
2023-04-29T12:46:12.994Z,5.25
2023-04-29T12:51:16.646Z,4.97
2023-04-29T12:56:18.765Z,4.70
2023-04-29T13:01:21.019Z,4.82
2023-04-29T13:06:23.566Z,4.03
2023-04-29T13:11:30.364Z,3.55
2023-04-29T13:16:36.915Z,3.60
2023-04-29T13:21:39.434Z,4.00
2023-04-29T13:26:41.435Z,3.63
2023-04-29T13:31:44.160Z,4.20
2023-04-29T13:36:46.776Z,4.05
2023-04-29T13:41:49.087Z,3.70
2023-04-29T13:46:52.406Z,3.88
2023-04-29T13:52:47.440Z,3.95
2023-04-29T13:58:12.485Z,3.83
2023-04-29T14:07:40.900Z,3.38
2023-04-29T14:12:42.972Z,3.58
2023-04-29T14:17:45.106Z,3.05
2023-04-29T14:22:47.236Z,3.58
2023-04-29T14:27:49.673Z,3.20
2023-04-29T14:32:51.768Z,2.97
2023-04-29T14:37:53.818Z,3.03
2023-04-29T14:42:56.108Z,3.67
2023-04-29T14:47:58.123Z,3.50
2023-04-29T14:53:01.551Z,3.10
2023-04-29T14:58:04.975Z,2.60
2023-04-29T15:03:07.228Z,3.28
2023-04-29T15:08:09.599Z,2.50
2023-04-29T15:13:11.622Z,3.08
2023-04-29T15:18:13.810Z,2.10
2023-04-29T15:23:16.100Z,2.00
2023-04-29T15:28:18.300Z,2.88
2023-04-29T15:33:20.456Z,2.45
2023-04-29T15:38:22.531Z,2.55
2023-04-29T15:43:24.668Z,2.40
2023-04-29T15:48:27.195Z,2.28
2023-04-29T15:53:29.154Z,3.60
2023-04-29T15:58:31.242Z,3.42
2023-04-29T16:03:33.422Z,2.92
2023-04-29T16:08:35.680Z,3.42
2023-04-29T16:13:37.745Z,3.60
2023-04-29T16:18:39.823Z,4.40
2023-04-29T16:23:41.859Z,3.33
2023-04-29T16:28:43.878Z,3.50
2023-04-29T16:33:45.947Z,4.03
2023-04-29T16:38:48.468Z,3.40
2023-04-29T16:43:50.563Z,2.97
2023-04-29T16:48:56.647Z,3.58
2023-04-29T16:53:58.930Z,3.30
2023-04-29T16:59:01.183Z,3.13
2023-04-29T17:04:04.049Z,3.20
2023-04-29T17:09:06.751Z,3.10
2023-04-29T17:14:08.770Z,2.92
2023-04-29T17:19:11.156Z,3.30
2023-04-29T17:24:13.254Z,3.08
2023-04-29T17:29:15.292Z,3.00
2023-04-29T17:34:23.597Z,3.03
2023-04-29T17:39:25.731Z,2.67
2023-04-29T17:44:27.936Z,2.58
2023-04-29T17:49:30.040Z,2.00
2023-04-29T17:54:32.102Z,2.20
2023-04-29T17:59:34.152Z,2.13
2023-04-29T18:04:37.306Z,2.33
2023-04-29T18:09:39.431Z,2.35
2023-04-29T18:14:42.254Z,3.30
2023-04-29T18:19:47.265Z,3.72
2023-04-29T18:24:49.655Z,3.88
2023-04-29T18:29:51.840Z,3.15
2023-04-29T18:34:53.961Z,3.47
2023-04-29T18:39:56.385Z,3.33
2023-04-29T18:44:58.507Z,2.90
2023-04-29T18:50:00.547Z,2.80
2023-04-29T18:55:02.638Z,2.92
2023-04-29T19:00:06.060Z,2.90
2023-04-29T19:05:12.884Z,2.83
2023-04-29T19:10:15.005Z,2.58
2023-04-29T19:15:18.012Z,3.00
2023-04-29T19:20:21.534Z,2.40
2023-04-29T19:25:25.886Z,2.50
2023-04-29T19:30:27.973Z,2.55
2023-04-29T19:35:30.002Z,2.40
2023-04-29T19:40:32.138Z,2.70
2023-04-29T19:45:35.262Z,2.65
2023-04-29T19:50:37.319Z,2.70
2023-04-29T19:55:39.887Z,2.05
2023-04-29T20:00:41.995Z,1.90
2023-04-29T20:05:44.092Z,2.35
2023-04-29T20:10:46.217Z,2.38
2023-04-29T20:15:48.527Z,2.00
2023-04-29T20:20:50.978Z,2.55
2023-04-29T20:25:53.020Z,2.08
2023-04-29T20:30:55.765Z,1.80
2023-04-29T20:35:59.410Z,2.00
2023-04-29T20:41:02.781Z,1.90
2023-04-29T20:46:04.860Z,1.90
2023-04-29T20:51:06.999Z,1.83
2023-04-29T20:56:10.530Z,2.58
2023-04-29T21:01:12.621Z,2.40
2023-04-29T21:06:14.812Z,2.22
2023-04-29T21:11:16.901Z,2.85
2023-04-29T21:16:19.464Z,3.13
2023-04-29T21:21:23.121Z,3.05
2023-04-29T21:26:25.218Z,4.03
2023-04-29T21:31:27.325Z,3.05
2023-04-29T21:36:29.312Z,3.40
2023-04-29T21:41:34.733Z,3.63
2023-04-29T21:46:36.965Z,3.10
2023-04-29T21:51:39.190Z,3.58
2023-04-29T21:56:41.271Z,3.60
2023-04-29T22:01:43.402Z,3.78
2023-04-29T22:06:45.887Z,4.35
2023-04-29T22:11:48.442Z,4.30
2023-04-29T22:16:50.542Z,4.82
2023-04-29T22:21:52.604Z,4.20
2023-04-29T22:26:54.613Z,4.78
2023-04-29T22:31:56.701Z,5.00
2023-04-29T22:36:58.710Z,4.45
2023-04-29T22:42:00.952Z,5.03
2023-04-29T22:47:03.927Z,5.50
2023-04-29T22:52:06.057Z,5.40
2023-04-29T22:57:08.652Z,5.30
2023-04-29T23:02:10.635Z,5.72
2023-04-29T23:07:12.704Z,5.82
2023-04-29T23:12:15.007Z,6.28
2023-04-29T23:17:17.124Z,6.38
2023-04-29T23:22:19.214Z,6.57
2023-04-29T23:27:21.249Z,6.88
2023-04-29T23:32:24.434Z,7.10
2023-04-29T23:37:26.474Z,7.70
2023-04-29T23:42:28.495Z,7.35
2023-04-29T23:47:30.609Z,7.60
2023-04-29T23:52:32.650Z,7.38
2023-04-29T23:57:34.657Z,8.25
